CheckWX is a tool to help pilots better visualize weather data.  It is not intended as a substitute for an official pre-flight weather briefing.

05:19:57 UTC

KAIG METAR
Langlade County Airport
Antigo, Wisconsin, USA
Current

25 mins ago

KAIG 200455Z AUTO 07003KT 10SM CLR M17/M19 A3030 RMK AO2 T11711191
Observed
Feb-20 @ 04:55 UTC
Wind
  • 070° at 3 KTS
Visibility
16,093 meters
Flight Rules
VFR
Cloud Levels
  • Clear skies
Temperature
-17°C / 1°F
Dewpoint
-19°C / -2°F
Humidity
85%
Altimeter
30.3" Hg
Pressure
1026.12 hPa
Previous

45 mins ago

KAIG 200435Z AUTO 03003KT 10SM CLR M19/M21 A3031 RMK AO2 T11891212
Observed
Feb-20 @ 04:35 UTC
Wind
  • 030° at 3 KTS
Visibility
16,093 meters
Flight Rules
VFR
Cloud Levels
  • Clear skies
Temperature
-19°C / -2°F
Dewpoint
-21°C / -6°F
Humidity
84%
Altimeter
30.31" Hg
Pressure
1026.42 hPa
Previous

1 hour ago

KAIG 200415Z AUTO 00000KT 10SM CLR M20/M22 A3032 RMK AO2 T11991223
Observed
Feb-20 @ 04:15 UTC
Visibility
16,093 meters
Flight Rules
VFR
Cloud Levels
  • Clear skies
Temperature
-20°C / -4°F
Dewpoint
-22°C / -8°F
Humidity
84%
Altimeter
30.32" Hg
Pressure
1026.72 hPa